Time;durP1;ratioP1;P1;durP2;ratioP2;P2;SDS_P1;SDS_P2;PMS_P1;PMS_P2;Temp;Humidity;BMP_temperature;BMP_pressure;BME280_temperature;BME280_humidity;BME280_pressure;Samples;Min_cycle;Max_cycle;Signal;HPM_P1;HPM_P2
2021/06/24 00:00:52;;;;;;;3.70;1.60;;;17.50;73.80;;;;;;4996130;28;20029;-88
2021/06/24 00:03:18;;;;;;;3.80;2.03;;;17.40;73.80;;;;;;4978831;28;20114;-88
2021/06/24 00:05:45;;;;;;;3.30;1.70;;;17.50;73.90;;;;;;4978443;28;20031;-87
2021/06/24 00:08:11;;;;;;;5.53;1.95;;;17.40;73.80;;;;;;4978747;28;20077;-87
2021/06/24 00:10:40;;;;;;;7.45;1.80;;;17.40;73.90;;;;;;4978551;28;20018;-87
2021/06/24 00:13:05;;;;;;;3.28;1.48;;;17.40;73.90;;;;;;4997946;28;20027;-88
2021/06/24 00:15:32;;;;;;;4.57;1.90;;;17.40;73.90;;;;;;4979334;28;20041;-88
2021/06/24 00:17:57;;;;;;;5.57;1.90;;;17.40;73.90;;;;;;4978939;28;20023;-88
2021/06/24 00:20:23;;;;;;;3.78;1.70;;;17.40;73.90;;;;;;4999282;28;20121;-88
2021/06/24 00:22:49;;;;;;;4.50;1.65;;;17.40;73.90;;;;;;4997799;28;20018;-88
2021/06/24 00:25:15;;;;;;;4.35;2.13;;;17.30;73.80;;;;;;4981004;28;20076;-89
2021/06/24 00:27:41;;;;;;;4.13;1.77;;;17.30;74.00;;;;;;4978688;28;20034;-88
2021/06/24 00:30:08;;;;;;;4.53;1.70;;;17.30;74.80;;;;;;4995975;28;20478;-88
2021/06/24 00:32:34;;;;;;;4.22;1.60;;;17.30;74.20;;;;;;4996430;28;20076;-89
2021/06/24 00:35:01;;;;;;;2.75;1.80;;;17.30;74.10;;;;;;4977803;28;20022;-88
2021/06/24 00:37:31;;;;;;;6.80;2.00;;;17.30;74.00;;;;;;4978147;28;20019;-88
2021/06/24 00:39:58;;;;;;;3.22;1.60;;;17.20;74.00;;;;;;4977832;28;20023;-89
2021/06/24 00:42:26;;;;;;;5.00;2.00;;;17.20;74.10;;;;;;4978652;28;20121;-89
2021/06/24 00:44:52;;;;;;;3.85;1.90;;;17.20;74.30;;;;;;4978277;28;20026;-89
2021/06/24 00:47:19;;;;;;;4.15;1.90;;;17.20;74.20;;;;;;4978993;28;20034;-90
2021/06/24 00:49:45;;;;;;;4.38;2.13;;;17.10;74.10;;;;;;4979257;28;20074;-89
2021/06/24 00:52:10;;;;;;;4.70;1.77;;;17.20;74.30;;;;;;4995604;28;20363;-89
2021/06/24 00:54:36;;;;;;;2.00;1.55;;;17.20;74.30;;;;;;4979069;28;20057;-90
2021/06/24 00:57:02;;;;;;;5.45;2.22;;;17.10;74.20;;;;;;4978336;28;20026;-90
2021/06/24 00:59:28;;;;;;;3.55;2.40;;;17.20;74.20;;;;;;4979946;28;20030;-90
2021/06/24 01:01:54;;;;;;;2.47;1.85;;;17.20;74.30;;;;;;4997600;28;20084;-88
2021/06/24 01:04:22;;;;;;;3.22;2.05;;;17.10;74.20;;;;;;5012509;28;20503;-89
2021/06/24 01:06:52;;;;;;;4.28;2.13;;;17.10;74.40;;;;;;5008695;28;20026;-88
2021/06/24 01:09:18;;;;;;;2.97;2.07;;;17.10;74.90;;;;;;4979358;28;20022;-87
2021/06/24 01:11:45;;;;;;;3.90;1.80;;;17.10;74.30;;;;;;4980859;28;20030;-86
2021/06/24 01:14:11;;;;;;;4.47;2.20;;;17.10;74.30;;;;;;4991723;28;20041;-86
2021/06/24 01:16:38;;;;;;;3.17;1.85;;;17.00;74.20;;;;;;4993374;28;20031;-87
2021/06/24 01:19:06;;;;;;;5.22;1.88;;;17.00;74.80;;;;;;4977760;28;20018;-89
2021/06/24 01:21:35;;;;;;;4.95;2.00;;;17.10;74.30;;;;;;4978394;28;20372;-89
2021/06/24 01:24:00;;;;;;;4.80;2.15;;;17.10;74.30;;;;;;4977458;28;20026;-89
2021/06/24 01:26:27;;;;;;;2.85;1.92;;;17.10;74.10;;;;;;4995598;28;20475;-89
2021/06/24 01:28:52;;;;;;;3.83;1.80;;;17.10;74.20;;;;;;4977399;28;20026;-87
2021/06/24 01:31:21;;;;;;;3.38;1.85;;;17.10;74.40;;;;;;4995237;28;20018;-88
2021/06/24 01:33:47;;;;;;;4.50;2.00;;;17.10;74.50;;;;;;4997894;28;20062;-89
2021/06/24 01:36:13;;;;;;;2.15;1.55;;;17.10;74.50;;;;;;4981722;28;20490;-88
2021/06/24 01:38:42;;;;;;;3.08;1.95;;;17.10;74.40;;;;;;4996208;28;20041;-89
2021/06/24 01:41:11;;;;;;;5.38;2.05;;;17.10;74.50;;;;;;4980205;28;20088;-88
2021/06/24 01:43:37;;;;;;;4.00;1.63;;;17.00;74.50;;;;;;4977792;28;20018;-89
2021/06/24 01:46:02;;;;;;;3.20;2.03;;;17.00;74.60;;;;;;4976854;28;20030;-88
2021/06/24 01:48:28;;;;;;;2.78;1.83;;;17.00;74.60;;;;;;4988707;28;20104;-87
2021/06/24 01:50:57;;;;;;;4.97;2.40;;;17.00;74.60;;;;;;4982988;28;20348;-87
2021/06/24 01:53:23;;;;;;;3.33;1.85;;;17.00;74.70;;;;;;4989384;28;20091;-88
2021/06/24 01:55:50;;;;;;;5.95;2.40;;;17.00;74.60;;;;;;4991898;28;20117;-87
2021/06/24 01:58:24;;;;;;;4.50;1.98;;;17.00;74.60;;;;;;4986246;28;20023;-88
2021/06/24 02:00:52;;;;;;;2.67;1.90;;;17.00;74.60;;;;;;4994106;28;20109;-88
2021/06/24 02:03:18;;;;;;;3.15;1.70;;;17.00;74.60;;;;;;4976791;28;20050;-87
2021/06/24 02:05:51;;;;;;;3.38;1.95;;;17.00;74.60;;;;;;4976317;28;20085;-87
2021/06/24 02:08:23;;;;;;;5.50;2.08;;;17.00;74.70;;;;;;4976848;28;20081;-88
2021/06/24 02:10:50;;;;;;;4.28;2.03;;;17.00;74.60;;;;;;4976321;28;20053;-86
2021/06/24 02:13:16;;;;;;;4.78;2.25;;;17.00;74.60;;;;;;4976843;28;20049;-87
2021/06/24 02:15:42;;;;;;;2.67;1.70;;;16.90;74.70;;;;;;4994160;28;20081;-87
2021/06/24 02:18:09;;;;;;;4.65;2.05;;;16.80;74.90;;;;;;4976122;28;20041;-87
2021/06/24 02:20:35;;;;;;;3.35;2.10;;;16.80;75.00;;;;;;4993964;28;20023;-87
2021/06/24 02:23:01;;;;;;;4.53;2.05;;;16.80;75.00;;;;;;4976406;28;20119;-88
2021/06/24 02:25:27;;;;;;;4.97;2.28;;;16.70;75.10;;;;;;4994224;28;20089;-86
2021/06/24 02:27:54;;;;;;;3.92;1.92;;;16.70;75.20;;;;;;4975645;28;20570;-88
2021/06/24 02:30:20;;;;;;;3.90;1.98;;;16.80;75.20;;;;;;4976443;28;20026;-89
2021/06/24 02:32:47;;;;;;;3.65;2.10;;;16.80;75.10;;;;;;4994053;28;20026;-88
2021/06/24 02:35:14;;;;;;;3.60;2.15;;;16.80;75.10;;;;;;4977273;28;20026;-89
2021/06/24 02:37:44;;;;;;;6.20;2.00;;;16.80;75.10;;;;;;4985039;28;20069;-87
2021/06/24 02:40:12;;;;;;;4.40;2.30;;;16.70;75.10;;;;;;4984296;28;20113;-88
2021/06/24 02:42:38;;;;;;;2.92;1.85;;;16.70;75.20;;;;;;4976681;28;20230;-88
2021/06/24 02:45:06;;;;;;;4.72;2.28;;;16.70;75.30;;;;;;4997019;28;20022;-88
2021/06/24 02:47:32;;;;;;;4.40;2.00;;;16.70;75.40;;;;;;5001964;28;20030;-87
2021/06/24 02:49:58;;;;;;;4.38;2.03;;;16.60;76.00;;;;;;4981630;28;20493;-88
2021/06/24 02:52:23;;;;;;;3.25;2.30;;;16.60;75.30;;;;;;4994134;28;20022;-87
2021/06/24 02:54:52;;;;;;;3.88;2.28;;;16.60;75.50;;;;;;4976161;28;20482;-87
2021/06/24 02:57:21;;;;;;;6.80;2.28;;;16.60;75.70;;;;;;4975914;28;20110;-88
2021/06/24 02:59:47;;;;;;;5.65;2.42;;;16.60;75.60;;;;;;4976594;28;20026;-89
2021/06/24 03:02:13;;;;;;;5.05;2.13;;;16.60;75.70;;;;;;4976582;28;20031;-88
2021/06/24 03:04:39;;;;;;;3.67;2.28;;;16.60;75.80;;;;;;4976469;28;20157;-89
2021/06/24 03:07:04;;;;;;;3.70;2.17;;;16.60;75.80;;;;;;4976531;28;20381;-89
2021/06/24 03:09:30;;;;;;;5.60;2.55;;;16.60;75.70;;;;;;4996892;28;20478;-88
2021/06/24 03:11:55;;;;;;;10.63;2.50;;;16.60;75.70;;;;;;4999251;28;20019;-88
2021/06/24 03:14:22;;;;;;;3.97;2.10;;;16.60;75.70;;;;;;4985044;28;20022;-88
2021/06/24 03:16:48;;;;;;;5.95;2.13;;;16.60;75.70;;;;;;4984283;28;20040;-89
2021/06/24 03:19:14;;;;;;;4.10;1.98;;;16.60;75.70;;;;;;4997196;28;20437;-87
2021/06/24 03:21:40;;;;;;;5.38;2.10;;;16.60;75.70;;;;;;4997476;28;20035;-87
2021/06/24 03:24:06;;;;;;;5.18;2.20;;;16.50;75.60;;;;;;4996635;28;20164;-88
2021/06/24 03:26:33;;;;;;;3.95;2.25;;;16.50;75.80;;;;;;4979485;28;20023;-88
2021/06/24 03:28:58;;;;;;;5.28;2.15;;;16.50;75.80;;;;;;4996537;28;20047;-88
2021/06/24 03:31:24;;;;;;;4.18;2.13;;;16.50;75.80;;;;;;4979854;28;20031;-88
2021/06/24 03:33:51;;;;;;;4.05;1.85;;;16.50;75.90;;;;;;4980095;28;20055;-84
2021/06/24 03:36:18;;;;;;;3.50;2.10;;;16.40;75.90;;;;;;4997825;28;20018;-87
2021/06/24 03:38:48;;;;;;;5.85;2.20;;;16.40;76.10;;;;;;4979634;28;20061;-87
2021/06/24 03:41:15;;;;;;;3.25;2.05;;;16.40;76.00;;;;;;4996269;28;20026;-88
2021/06/24 03:43:42;;;;;;;3.90;2.40;;;16.40;76.00;;;;;;4999502;28;20026;-88
2021/06/24 03:46:08;;;;;;;4.07;2.25;;;16.40;75.90;;;;;;4979752;28;20062;-88
2021/06/24 03:48:35;;;;;;;3.45;1.88;;;16.50;76.00;;;;;;4982315;28;20471;-87
2021/06/24 03:51:02;;;;;;;4.15;2.25;;;16.40;75.90;;;;;;4979543;28;20022;-87
2021/06/24 03:53:28;;;;;;;5.15;1.85;;;16.50;75.90;;;;;;4979537;28;20029;-88
2021/06/24 03:55:53;;;;;;;4.45;2.00;;;16.50;75.80;;;;;;4979338;28;20023;-87
2021/06/24 03:58:19;;;;;;;4.20;1.83;;;16.50;75.60;;;;;;4996576;28;20026;-87
2021/06/24 04:00:47;;;;;;;4.32;2.25;;;16.50;75.60;;;;;;4996797;28;20027;-87
2021/06/24 04:03:14;;;;;;;4.57;2.35;;;16.50;75.60;;;;;;4978004;28;20136;-86
2021/06/24 04:05:40;;;;;;;5.18;2.28;;;16.50;75.60;;;;;;4996282;28;20034;-88
2021/06/24 04:08:08;;;;;;;3.53;1.98;;;16.50;75.60;;;;;;4983562;28;20481;-88
2021/06/24 04:10:34;;;;;;;4.35;2.05;;;16.60;75.70;;;;;;4978617;28;20455;-88
2021/06/24 04:13:00;;;;;;;2.88;1.95;;;16.60;75.70;;;;;;4978257;28;20109;-89
2021/06/24 04:15:28;;;;;;;5.25;2.17;;;16.50;75.70;;;;;;4979047;28;20046;-89
2021/06/24 04:17:54;;;;;;;4.28;2.20;;;16.60;75.90;;;;;;4978280;28;20019;-85
2021/06/24 04:20:20;;;;;;;5.35;2.08;;;16.60;75.80;;;;;;4983901;28;20090;-87
2021/06/24 04:22:47;;;;;;;3.70;2.00;;;16.60;75.80;;;;;;4994920;28;20030;-89
2021/06/24 04:25:14;;;;;;;3.53;1.98;;;16.60;75.90;;;;;;4997872;28;20030;-88
2021/06/24 04:27:42;;;;;;;11.18;6.70;;;16.60;76.00;;;;;;5014536;28;20049;-87
2021/06/24 04:30:09;;;;;;;5.45;3.00;;;16.70;75.90;;;;;;4985531;28;20031;-89
2021/06/24 04:32:35;;;;;;;4.68;2.65;;;16.70;75.70;;;;;;4978777;28;20019;-89
2021/06/24 04:35:01;;;;;;;4.50;2.28;;;16.70;75.80;;;;;;4995587;28;20031;-89
2021/06/24 04:37:26;;;;;;;3.58;2.20;;;16.70;75.80;;;;;;4995909;28;20097;-89
2021/06/24 04:39:52;;;;;;;3.20;2.00;;;16.70;75.80;;;;;;4978663;28;20117;-90
2021/06/24 04:42:18;;;;;;;3.63;2.10;;;16.70;75.80;;;;;;4977591;28;20616;-90
2021/06/24 04:44:43;;;;;;;3.70;2.00;;;16.70;75.90;;;;;;4978501;28;20034;-90
2021/06/24 04:47:09;;;;;;;4.72;2.10;;;16.70;75.70;;;;;;4995710;28;20038;-90
2021/06/24 04:49:35;;;;;;;3.75;1.88;;;16.70;75.90;;;;;;4979005;28;20093;-90
2021/06/24 04:52:01;;;;;;;2.63;1.95;;;16.70;75.90;;;;;;4995770;28;20030;-89
2021/06/24 04:54:27;;;;;;;4.53;2.13;;;16.70;75.80;;;;;;4996386;28;20029;-89
2021/06/24 04:56:52;;;;;;;5.57;2.50;;;16.70;75.70;;;;;;4978731;28;20032;-89
2021/06/24 04:59:18;;;;;;;5.10;2.20;;;16.80;75.60;;;;;;4995549;28;20068;-89
2021/06/24 05:01:43;;;;;;;4.32;2.13;;;16.80;75.60;;;;;;4995219;28;20413;-88
2021/06/24 05:04:09;;;;;;;3.85;2.08;;;16.80;75.60;;;;;;4975883;28;20046;-84
2021/06/24 05:06:35;;;;;;;6.72;2.28;;;16.80;75.60;;;;;;4993342;28;20038;-81
2021/06/24 05:09:01;;;;;;;2.88;2.00;;;16.80;75.70;;;;;;4973045;28;20034;-80
2021/06/24 05:11:27;;;;;;;3.08;1.88;;;16.80;75.80;;;;;;4974180;28;20364;-82
2021/06/24 05:13:52;;;;;;;3.00;2.10;;;16.80;75.80;;;;;;4976742;28;20076;-81
2021/06/24 05:16:18;;;;;;;3.53;2.13;;;16.80;75.80;;;;;;4991715;28;20056;-80
2021/06/24 05:18:44;;;;;;;4.18;1.92;;;16.80;75.80;;;;;;4992145;28;20026;-79
2021/06/24 05:21:10;;;;;;;3.78;1.95;;;16.80;75.80;;;;;;4974712;28;20070;-78
2021/06/24 05:23:38;;;;;;;3.85;2.13;;;16.70;75.80;;;;;;4993291;28;20387;-80
2021/06/24 05:26:04;;;;;;;2.85;1.73;;;16.70;76.00;;;;;;4992804;28;20089;-81
2021/06/24 05:28:31;;;;;;;3.83;2.10;;;16.70;75.90;;;;;;4993324;28;20026;-82
2021/06/24 05:30:56;;;;;;;3.08;2.05;;;16.80;76.00;;;;;;4975839;28;20045;-81
2021/06/24 05:33:22;;;;;;;5.40;2.15;;;16.80;75.90;;;;;;4992798;28;20026;-81
2021/06/24 05:35:49;;;;;;;4.93;2.15;;;16.80;75.90;;;;;;4993326;28;20509;-81
2021/06/24 05:38:16;;;;;;;4.20;1.63;;;16.80;75.90;;;;;;4974635;28;20042;-81
2021/06/24 05:40:44;;;;;;;3.00;1.92;;;16.80;76.00;;;;;;4992828;28;20479;-81
2021/06/24 05:43:10;;;;;;;4.47;2.28;;;16.90;75.90;;;;;;4975150;28;20077;-81
2021/06/24 05:45:35;;;;;;;3.45;2.08;;;17.00;75.80;;;;;;4975639;28;20026;-81
2021/06/24 05:48:01;;;;;;;5.55;2.15;;;17.10;75.70;;;;;;4974972;28;20506;-81
2021/06/24 05:50:27;;;;;;;3.55;2.30;;;17.10;75.50;;;;;;4975746;28;20102;-81
2021/06/24 05:52:54;;;;;;;4.95;2.55;;;17.00;75.40;;;;;;4975509;28;20375;-81
2021/06/24 05:55:47;;;;;;;3.65;2.13;;;17.10;75.50;;;;;;4992476;28;20048;-81
2021/06/24 05:58:06;;;;;;;5.10;2.33;;;17.10;75.40;;;;;;4991920;28;20034;-81
2021/06/24 06:00:32;;;;;;;5.43;2.30;;;17.20;75.30;;;;;;4993145;28;20073;-81
2021/06/24 06:02:58;;;;;;;4.90;2.60;;;17.20;75.30;;;;;;4992665;28;20037;-81
2021/06/24 06:05:26;;;;;;;4.20;2.08;;;17.20;75.10;;;;;;4974858;28;20427;-81
2021/06/24 06:07:51;;;;;;;5.45;2.40;;;17.30;75.10;;;;;;4992954;28;20022;-81
2021/06/24 06:10:17;;;;;;;4.15;2.03;;;17.30;75.00;;;;;;4992739;28;20032;-81
2021/06/24 06:12:43;;;;;;;3.63;2.38;;;17.30;74.80;;;;;;4975245;28;20451;-81
2021/06/24 06:15:09;;;;;;;4.35;2.15;;;17.40;75.00;;;;;;4974667;28;20037;-81
2021/06/24 06:17:34;;;;;;;5.85;2.45;;;17.40;75.00;;;;;;4992913;28;20030;-81
2021/06/24 06:20:00;;;;;;;4.75;2.10;;;17.40;74.90;;;;;;4975239;28;20029;-81
2021/06/24 06:22:26;;;;;;;4.40;2.40;;;17.50;74.70;;;;;;4991748;28;20134;-81
2021/06/24 06:24:51;;;;;;;6.75;2.70;;;17.50;74.70;;;;;;4975077;28;20026;-81
2021/06/24 06:27:17;;;;;;;4.53;2.60;;;17.60;74.60;;;;;;4992011;28;20375;-82
2021/06/24 06:29:42;;;;;;;5.35;2.20;;;17.60;74.40;;;;;;4975424;28;20113;-80
2021/06/24 06:32:08;;;;;;;4.55;2.22;;;17.70;74.30;;;;;;4974550;28;20132;-82
2021/06/24 06:34:34;;;;;;;3.83;2.25;;;17.60;74.30;;;;;;4975442;28;20101;-80
2021/06/24 06:36:59;;;;;;;4.88;2.40;;;17.60;74.40;;;;;;4992500;28;20027;-81
2021/06/24 06:39:25;;;;;;;5.13;2.30;;;17.70;74.40;;;;;;4992326;28;20022;-82
2021/06/24 06:41:51;;;;;;;4.15;2.28;;;17.70;74.30;;;;;;4992287;28;20048;-81
2021/06/24 06:44:16;;;;;;;4.25;2.33;;;17.70;74.30;;;;;;4974284;28;20117;-81
2021/06/24 06:46:42;;;;;;;4.82;2.42;;;17.70;74.20;;;;;;4992435;28;20085;-81
2021/06/24 06:49:07;;;;;;;4.50;2.50;;;17.70;74.20;;;;;;4974305;28;20078;-81
2021/06/24 06:51:33;;;;;;;5.18;2.45;;;17.70;74.10;;;;;;4996291;28;20034;-82
2021/06/24 06:53:59;;;;;;;3.83;2.30;;;17.70;74.00;;;;;;4978731;28;20117;-81
2021/06/24 06:56:24;;;;;;;4.82;2.60;;;17.70;74.00;;;;;;4995946;28;20116;-81
2021/06/24 06:58:52;;;;;;;4.15;2.20;;;17.80;74.10;;;;;;4996208;28;20038;-81
2021/06/24 07:01:17;;;;;;;4.15;2.42;;;17.80;73.80;;;;;;4977907;28;20022;-81
2021/06/24 07:03:43;;;;;;;4.80;2.38;;;17.90;73.60;;;;;;4974954;28;20399;-81
2021/06/24 07:06:09;;;;;;;4.03;2.17;;;18.00;73.40;;;;;;4976001;28;20113;-81
2021/06/24 07:08:35;;;;;;;5.50;1.90;;;18.10;73.90;;;;;;4976294;28;20027;-81
2021/06/24 07:11:00;;;;;;;4.15;2.40;;;18.10;73.00;;;;;;4976605;28;20106;-81
2021/06/24 07:13:26;;;;;;;4.40;2.20;;;18.20;72.80;;;;;;4975751;28;20026;-82
2021/06/24 07:15:56;;;;;;;4.30;2.10;;;18.30;72.90;;;;;;4975502;28;20054;-81
2021/06/24 07:18:22;;;;;;;5.45;2.40;;;18.40;72.70;;;;;;4974584;28;20419;-81
2021/06/24 07:20:47;;;;;;;5.70;2.38;;;18.40;72.70;;;;;;4975314;28;20486;-81
2021/06/24 07:23:13;;;;;;;4.93;2.13;;;18.40;72.30;;;;;;4975589;28;20474;-82
2021/06/24 07:25:39;;;;;;;4.75;2.30;;;18.40;72.00;;;;;;4974878;28;20085;-81
2021/06/24 07:28:04;;;;;;;7.00;2.13;;;18.50;72.00;;;;;;4974253;28;20081;-81
2021/06/24 07:30:30;;;;;;;3.50;1.88;;;18.50;71.90;;;;;;4974186;28;20486;-81
2021/06/24 07:32:56;;;;;;;5.10;2.00;;;18.50;71.70;;;;;;4974969;28;20494;-82
2021/06/24 07:35:21;;;;;;;3.05;1.83;;;18.40;71.60;;;;;;4975581;28;20534;-80
2021/06/24 07:37:48;;;;;;;4.32;1.95;;;18.40;71.60;;;;;;4974808;28;20118;-81
2021/06/24 07:40:14;;;;;;;3.35;1.92;;;18.50;71.70;;;;;;4974774;28;20027;-82
2021/06/24 07:42:40;;;;;;;6.28;2.30;;;18.50;71.40;;;;;;4975309;28;20035;-81
2021/06/24 07:45:06;;;;;;;3.78;1.80;;;18.60;71.20;;;;;;4974674;28;20035;-81
2021/06/24 07:47:32;;;;;;;4.05;2.10;;;18.70;71.10;;;;;;4975609;28;20103;-81
2021/06/24 07:49:58;;;;;;;5.65;2.20;;;18.80;70.90;;;;;;4974538;28;20030;-81
2021/06/24 07:52:23;;;;;;;2.63;1.70;;;18.90;70.60;;;;;;4973911;28;20023;-82
2021/06/24 07:54:49;;;;;;;3.38;2.38;;;18.90;70.40;;;;;;4974575;28;20057;-82
2021/06/24 07:57:15;;;;;;;3.22;1.85;;;19.00;70.10;;;;;;4975274;28;20107;-81
2021/06/24 07:59:40;;;;;;;5.22;2.00;;;18.90;69.90;;;;;;4974174;28;20467;-81
2021/06/24 08:02:06;;;;;;;3.10;1.83;;;19.00;69.80;;;;;;4975210;28;20023;-82
2021/06/24 08:04:33;;;;;;;3.20;2.00;;;19.00;69.80;;;;;;4986684;28;20042;-82
2021/06/24 08:06:59;;;;;;;2.45;1.75;;;19.10;69.60;;;;;;4977204;28;20113;-81
2021/06/24 08:09:24;;;;;;;3.50;1.75;;;19.10;69.30;;;;;;4976904;28;20161;-81
2021/06/24 08:11:50;;;;;;;4.38;1.98;;;19.20;69.10;;;;;;4995017;28;20080;-81
2021/06/24 08:14:16;;;;;;;3.58;1.73;;;19.30;68.80;;;;;;4994581;28;20030;-83
2021/06/24 08:16:41;;;;;;;4.95;2.13;;;19.30;68.80;;;;;;4977350;28;20046;-81
2021/06/24 08:19:07;;;;;;;3.47;1.58;;;19.40;68.70;;;;;;4995247;28;20030;-82
2021/06/24 08:21:33;;;;;;;5.15;1.98;;;19.50;68.50;;;;;;4994113;28;20453;-83
2021/06/24 08:23:58;;;;;;;3.92;2.08;;;19.50;68.20;;;;;;4978040;28;20027;-82
2021/06/24 08:26:24;;;;;;;4.57;2.08;;;19.60;68.10;;;;;;4993635;28;20105;-81
2021/06/24 08:28:50;;;;;;;3.38;2.17;;;19.60;67.90;;;;;;4994588;28;20026;-81
2021/06/24 08:31:16;;;;;;;4.43;2.10;;;19.60;67.80;;;;;;4994129;28;20023;-80
2021/06/24 08:33:41;;;;;;;3.53;2.00;;;19.70;67.70;;;;;;4994571;28;20022;-82
2021/06/24 08:36:07;;;;;;;3.53;1.95;;;19.80;67.50;;;;;;4994529;28;20034;-81
2021/06/24 08:38:33;;;;;;;2.50;1.63;;;19.80;67.30;;;;;;4994170;28;20106;-82
2021/06/24 08:40:59;;;;;;;4.95;1.90;;;19.80;67.20;;;;;;4976662;28;20027;-82
2021/06/24 08:43:25;;;;;;;5.55;2.33;;;19.80;67.30;;;;;;4976192;28;20431;-80
2021/06/24 08:45:59;;;;;;;4.75;1.95;;;19.70;67.30;;;;;;4994179;28;20069;-81
2021/06/24 08:48:26;;;;;;;3.15;2.13;;;19.70;67.30;;;;;;4976184;28;20022;-83
2021/06/24 08:50:51;;;;;;;3.15;1.92;;;19.60;67.20;;;;;;4976742;28;20041;-82
2021/06/24 08:53:18;;;;;;;2.83;1.83;;;19.60;67.40;;;;;;4993451;28;20018;-81
2021/06/24 08:55:46;;;;;;;5.18;2.00;;;19.50;67.20;;;;;;4976431;28;20026;-81
2021/06/24 08:58:13;;;;;;;6.25;2.50;;;19.50;67.30;;;;;;4976540;28;20027;-82
2021/06/24 09:00:38;;;;;;;5.28;1.95;;;19.40;67.20;;;;;;4976493;28;20026;-82
2021/06/24 09:03:22;;;;;;;5.10;2.20;;;19.40;67.20;;;;;;4993484;28;20026;-81
2021/06/24 09:05:58;;;;;;;3.65;2.10;;;19.40;67.10;;;;;;4993899;28;20033;-82
2021/06/24 09:08:43;;;;;;;4.13;2.05;;;19.30;67.20;;;;;;4993202;28;20129;-82
2021/06/24 09:11:16;;;;;;;5.85;2.13;;;19.30;67.20;;;;;;4976293;28;20064;-82
2021/06/24 09:13:43;;;;;;;5.63;2.70;;;19.30;67.30;;;;;;4993133;28;20491;-81
2021/06/24 09:16:24;;;;;;;3.75;2.10;;;19.30;67.90;;;;;;4993619;28;20053;-81
2021/06/24 09:18:51;;;;;;;5.72;2.17;;;19.30;67.10;;;;;;4993812;28;20109;-81
2021/06/24 09:21:22;;;;;;;5.85;2.17;;;19.40;66.90;;;;;;4975680;28;20033;-81
2021/06/24 09:23:50;;;;;;;3.58;2.17;;;19.40;66.90;;;;;;4976172;28;20072;-82
2021/06/24 09:26:17;;;;;;;4.40;2.17;;;19.30;66.90;;;;;;4975695;28;20027;-80
2021/06/24 09:28:52;;;;;;;6.90;2.42;;;19.40;66.90;;;;;;4993504;28;20038;-82
2021/06/24 09:31:29;;;;;;;6.90;2.55;;;19.40;66.90;;;;;;4992846;28;20467;-82
2021/06/24 09:33:57;;;;;;;4.25;1.67;;;19.40;67.10;;;;;;4993414;28;20033;-81
2021/06/24 09:36:33;;;;;;;3.83;2.28;;;19.40;66.90;;;;;;4975265;28;20386;-82
2021/06/24 09:38:59;;;;;;;3.58;2.22;;;19.40;66.90;;;;;;4975938;28;20046;-82
2021/06/24 09:41:25;;;;;;;4.35;2.95;;;19.40;67.10;;;;;;4975178;28;20113;-81
2021/06/24 09:43:51;;;;;;;5.38;2.17;;;19.40;67.20;;;;;;4975689;28;20379;-81
2021/06/24 09:46:18;;;;;;;7.50;2.72;;;19.40;67.20;;;;;;4992804;28;20030;-78
2021/06/24 09:48:58;;;;;;;8.27;2.40;;;19.40;67.20;;;;;;4975611;28;20166;-82
2021/06/24 09:51:32;;;;;;;3.20;2.10;;;19.50;67.30;;;;;;4975059;28;20053;-81
2021/06/24 09:53:59;;;;;;;5.57;2.45;;;19.50;67.20;;;;;;4975474;28;20037;-81
2021/06/24 09:56:31;;;;;;;4.50;2.47;;;19.50;67.40;;;;;;4974821;28;20030;-81
2021/06/24 09:58:58;;;;;;;4.65;2.30;;;19.50;67.30;;;;;;4993052;28;20022;-81
2021/06/24 10:01:33;;;;;;;5.10;2.72;;;19.40;67.40;;;;;;4992334;28;20026;-82
2021/06/24 10:04:00;;;;;;;4.47;2.50;;;19.50;67.50;;;;;;4975276;28;20118;-82
2021/06/24 10:06:27;;;;;;;3.55;2.15;;;19.50;67.30;;;;;;4992303;28;20356;-81
2021/06/24 10:08:54;;;;;;;4.22;2.55;;;19.50;67.10;;;;;;4976710;28;20459;-82
2021/06/24 10:11:22;;;;;;;3.08;2.33;;;19.40;67.10;;;;;;4974751;28;20401;-81
2021/06/24 10:13:48;;;;;;;6.03;2.50;;;19.40;67.10;;;;;;4992703;28;20023;-82
2021/06/24 10:16:15;;;;;;;4.28;2.65;;;19.30;67.20;;;;;;4975387;28;20481;-81
2021/06/24 10:18:45;;;;;;;6.53;2.33;;;19.30;67.30;;;;;;4992411;28;20109;-82
2021/06/24 10:21:12;;;;;;;4.60;2.58;;;19.30;67.20;;;;;;4975236;28;20031;-81
2021/06/24 10:23:39;;;;;;;9.40;2.60;;;19.30;67.20;;;;;;4974646;28;20105;-81
2021/06/24 10:26:05;;;;;;;7.05;2.80;;;19.40;67.20;;;;;;4975159;28;20069;-82
2021/06/24 10:28:31;;;;;;;4.38;2.60;;;19.50;67.10;;;;;;4974550;28;20459;-82
2021/06/24 10:30:57;;;;;;;3.47;2.28;;;19.60;66.80;;;;;;4975097;28;20069;-81
2021/06/24 10:33:22;;;;;;;6.38;2.22;;;19.70;66.70;;;;;;4974614;28;20022;-81
2021/06/24 10:35:51;;;;;;;4.85;2.47;;;19.80;66.50;;;;;;4975114;28;20030;-82
2021/06/24 10:38:18;;;;;;;3.58;2.30;;;19.70;66.50;;;;;;4975012;28;20022;-81
2021/06/24 10:40:55;;;;;;;5.88;2.28;;;19.80;66.40;;;;;;4991862;28;20030;-81
2021/06/24 10:43:23;;;;;;;4.20;2.40;;;19.90;66.30;;;;;;4974619;28;20033;-80
2021/06/24 10:45:49;;;;;;;3.47;2.53;;;20.00;66.30;;;;;;4975027;28;20033;-81
2021/06/24 10:48:25;;;;;;;4.90;2.45;;;20.00;66.10;;;;;;4992456;28;20038;-82
2021/06/24 10:50:58;;;;;;;6.35;2.97;;;20.10;66.00;;;;;;4992650;28;20034;-81
2021/06/24 10:53:23;;;;;;;5.95;3.22;;;20.10;65.90;;;;;;4992082;28;20073;-81
2021/06/24 10:55:50;;;;;;;4.20;2.72;;;20.00;66.10;;;;;;4992231;28;20031;-81
2021/06/24 10:58:19;;;;;;;8.77;2.60;;;20.00;66.20;;;;;;4975512;28;20418;-81
2021/06/24 11:00:59;;;;;;;4.43;2.20;;;20.00;66.40;;;;;;4974987;28;20029;-82
2021/06/24 11:03:32;;;;;;;5.60;2.47;;;20.00;66.60;;;;;;4974255;28;20054;-82
2021/06/24 11:06:15;;;;;;;5.05;2.60;;;20.00;66.40;;;;;;4992520;28;20030;-82
2021/06/24 11:08:42;;;;;;;7.53;2.28;;;19.90;66.30;;;;;;4974141;28;20022;-82
2021/06/24 11:11:12;;;;;;;4.88;2.63;;;19.80;66.40;;;;;;4992319;28;20023;-82
2021/06/24 11:13:38;;;;;;;6.38;3.17;;;19.80;66.60;;;;;;4992354;28;20018;-82
2021/06/24 11:16:27;;;;;;;4.78;2.47;;;19.80;66.90;;;;;;4992369;28;20049;-82
2021/06/24 11:19:04;;;;;;;5.80;2.42;;;19.80;67.10;;;;;;4975055;28;20085;-82
2021/06/24 11:21:29;;;;;;;6.93;2.55;;;19.80;66.80;;;;;;4992725;28;20463;-82
2021/06/24 11:24:01;;;;;;;8.30;2.85;;;19.90;66.90;;;;;;4974738;28;20033;-82
2021/06/24 11:26:29;;;;;;;4.80;3.10;;;19.90;66.70;;;;;;4992491;28;20038;-81
2021/06/24 11:29:01;;;;;;;4.18;2.65;;;20.00;66.70;;;;;;4974536;28;20030;-82
2021/06/24 11:31:33;;;;;;;5.05;3.17;;;19.90;66.50;;;;;;4991400;28;20024;-81
2021/06/24 11:36:36;;;;;;;5.70;3.20;;;19.80;67.00;;;;;;4993791;28;20038;-82
2021/06/24 11:39:03;;;;;;;5.50;2.95;;;19.70;67.20;;;;;;4977934;28;20030;-81
2021/06/24 11:41:29;;;;;;;5.72;2.55;;;19.70;67.20;;;;;;4977142;28;20042;-81
2021/06/24 11:44:05;;;;;;;5.90;2.83;;;19.70;67.20;;;;;;4995303;28;20030;-82
2021/06/24 11:46:32;;;;;;;6.38;3.20;;;19.80;67.20;;;;;;4995115;28;20034;-83
2021/06/24 11:49:29;;;;;;;7.53;3.40;;;19.80;67.20;;;;;;4978113;28;20447;-82
2021/06/24 12:00:52;;;;;;;6.35;3.17;;;19.90;67.50;;;;;;4995301;28;20506;-82
2021/06/24 12:03:19;;;;;;;5.60;3.28;;;19.90;67.50;;;;;;4977862;28;20109;-82
2021/06/24 12:05:53;;;;;;;5.88;3.60;;;20.00;67.40;;;;;;4994514;28;20442;-82
2021/06/24 12:08:23;;;;;;;5.88;3.47;;;20.00;67.30;;;;;;4978592;28;20181;-82
2021/06/24 12:10:49;;;;;;;8.38;3.60;;;20.00;67.10;;;;;;4976985;28;20050;-82
2021/06/24 12:13:39;;;;;;;6.45;3.40;;;20.00;67.30;;;;;;4995633;28;20065;-81
2021/06/24 12:16:05;;;;;;;5.88;2.97;;;20.00;67.20;;;;;;4977467;28;20038;-81
2021/06/24 12:18:37;;;;;;;8.52;3.33;;;20.00;67.40;;;;;;4994481;28;20023;-81
2021/06/24 12:21:08;;;;;;;7.53;3.13;;;20.10;67.30;;;;;;4977470;28;20032;-81
2021/06/24 12:23:46;;;;;;;7.15;3.00;;;20.20;67.40;;;;;;4976778;28;20026;-82
2021/06/24 12:26:13;;;;;;;10.85;3.53;;;20.10;67.40;;;;;;4994492;28;20036;-82
2021/06/24 12:28:41;;;;;;;4.20;3.00;;;20.00;67.70;;;;;;4994663;28;20027;-82
2021/06/24 12:31:32;;;;;;;7.05;3.33;;;19.90;67.70;;;;;;4977191;28;20057;-82
2021/06/24 12:34:05;;;;;;;10.00;3.95;;;19.90;67.90;;;;;;4979587;28;20034;-82
2021/06/24 12:36:35;;;;;;;6.53;2.95;;;19.90;68.10;;;;;;4976751;28;20049;-82
2021/06/24 12:39:01;;;;;;;6.65;3.10;;;19.90;68.20;;;;;;4976690;28;20057;-83
2021/06/24 12:41:29;;;;;;;4.30;3.03;;;19.90;68.10;;;;;;4976857;28;20463;-82
2021/06/24 12:44:02;;;;;;;6.13;3.55;;;20.00;68.00;;;;;;4977470;28;20046;-82
2021/06/24 12:46:32;;;;;;;5.75;3.42;;;20.10;67.90;;;;;;4994234;28;20031;-82
2021/06/24 12:49:03;;;;;;;18.50;4.40;;;20.20;67.60;;;;;;4976193;28;20494;-82
2021/06/24 12:51:28;;;;;;;5.07;3.10;;;20.40;67.60;;;;;;4994494;28;20022;-82
2021/06/24 12:53:54;;;;;;;7.03;3.58;;;20.50;67.30;;;;;;4976813;28;20538;-82
2021/06/24 12:56:32;;;;;;;4.05;2.90;;;20.60;67.00;;;;;;4977029;28;20539;-82
2021/06/24 12:59:21;;;;;;;6.25;3.65;;;20.70;66.60;;;;;;4994364;28;20030;-82